sensor_id;sensor_type;location;lat;lon;timestamp;pressure;altitude;pressure_sealevel;temperature;humidity
51876;BME280;34054;52.100;5.116;2024-02-04T00:00:21;102193.09;;;10.62;100.00
51876;BME280;34054;52.100;5.116;2024-02-04T00:00:52;102196.66;;;10.63;100.00
51876;BME280;34054;52.100;5.116;2024-02-04T00:01:24;102193.50;;;10.66;100.00
51876;BME280;34054;52.100;5.116;2024-02-04T00:01:56;102192.66;;;10.65;100.00
51876;BME280;34054;52.100;5.116;2024-02-04T00:02:28;102196.66;;;10.63;100.00
51876;BME280;34054;52.100;5.116;2024-02-04T00:03:00;102194.56;;;10.65;100.00
51876;BME280;34054;52.100;5.116;2024-02-04T00:03:32;102193.38;;;10.54;100.00
51876;BME280;34054;52.100;5.116;2024-02-04T00:04:04;102197.00;;;10.48;100.00
51876;BME280;34054;52.100;5.116;2024-02-04T00:04:35;102192.41;;;10.48;100.00
51876;BME280;34054;52.100;5.116;2024-02-04T00:05:07;102204.06;;;10.56;100.00
51876;BME280;34054;52.100;5.116;2024-02-04T00:05:40;102193.94;;;10.63;100.00
51876;BME280;34054;52.100;5.116;2024-02-04T00:06:11;102199.91;;;10.53;100.00
51876;BME280;34054;52.100;5.116;2024-02-04T00:06:44;102199.91;;;10.53;100.00
51876;BME280;34054;52.100;5.116;2024-02-04T00:07:16;102194.53;;;10.46;100.00
51876;BME280;34054;52.100;5.116;2024-02-04T00:07:48;102207.63;;;10.49;100.00
51876;BME280;34054;52.100;5.116;2024-02-04T00:08:20;102198.94;;;10.66;100.00
51876;BME280;34054;52.100;5.116;2024-02-04T00:08:51;102210.09;;;10.76;100.00
51876;BME280;34054;52.100;5.116;2024-02-04T00:09:23;102196.91;;;10.61;100.00
51876;BME280;34054;52.100;5.116;2024-02-04T00:09:58;102200.28;;;10.57;100.00
51876;BME280;34054;52.100;5.116;2024-02-04T00:10:29;102202.84;;;10.70;100.00
51876;BME280;34054;52.100;5.116;2024-02-04T00:11:01;102203.84;;;10.76;100.00
51876;BME280;34054;52.100;5.116;2024-02-04T00:11:35;102192.53;;;10.79;100.00
51876;BME280;34054;52.100;5.116;2024-02-04T00:12:07;102200.09;;;10.77;100.00
51876;BME280;34054;52.100;5.116;2024-02-04T00:12:39;102196.38;;;10.71;100.00
51876;BME280;34054;52.100;5.116;2024-02-04T00:13:11;102183.91;;;10.63;100.00
51876;BME280;34054;52.100;5.116;2024-02-04T00:13:43;102199.31;;;10.70;100.00
51876;BME280;34054;52.100;5.116;2024-02-04T00:14:15;102193.22;;;10.74;100.00
51876;BME280;34054;52.100;5.116;2024-02-04T00:14:47;102188.38;;;10.76;100.00
51876;BME280;34054;52.100;5.116;2024-02-04T00:15:20;102189.41;;;10.75;100.00
51876;BME280;34054;52.100;5.116;2024-02-04T00:15:53;102189.94;;;10.65;100.00
51876;BME280;34054;52.100;5.116;2024-02-04T00:16:25;102191.09;;;10.58;100.00
51876;BME280;34054;52.100;5.116;2024-02-04T00:16:57;102194.00;;;10.56;100.00
51876;BME280;34054;52.100;5.116;2024-02-04T00:17:28;102190.19;;;10.64;100.00
51876;BME280;34054;52.100;5.116;2024-02-04T00:18:04;102192.81;;;10.71;100.00
51876;BME280;34054;52.100;5.116;2024-02-04T00:18:35;102172.66;;;10.60;100.00
51876;BME280;34054;52.100;5.116;2024-02-04T00:19:07;102187.25;;;10.84;100.00
51876;BME280;34054;52.100;5.116;2024-02-04T00:19:39;102194.72;;;10.89;100.00
51876;BME280;34054;52.100;5.116;2024-02-04T00:20:11;102183.69;;;10.83;100.00
51876;BME280;34054;52.100;5.116;2024-02-04T00:20:43;102184.91;;;10.88;100.00
51876;BME280;34054;52.100;5.116;2024-02-04T00:21:15;102195.53;;;10.89;100.00
51876;BME280;34054;52.100;5.116;2024-02-04T00:21:48;102192.38;;;10.92;100.00
51876;BME280;34054;52.100;5.116;2024-02-04T00:22:20;102188.53;;;10.81;100.00
51876;BME280;34054;52.100;5.116;2024-02-04T00:22:51;102193.41;;;10.73;100.00
51876;BME280;34054;52.100;5.116;2024-02-04T00:23:24;102195.75;;;10.69;100.00
51876;BME280;34054;52.100;5.116;2024-02-04T00:23:55;102174.00;;;10.50;100.00
51876;BME280;34054;52.100;5.116;2024-02-04T00:24:27;102188.75;;;10.61;100.00
51876;BME280;34054;52.100;5.116;2024-02-04T00:24:58;102185.13;;;10.67;100.00
51876;BME280;34054;52.100;5.116;2024-02-04T00:25:35;102189.88;;;10.72;100.00
51876;BME280;34054;52.100;5.116;2024-02-04T00:26:07;102189.66;;;10.74;100.00
51876;BME280;34054;52.100;5.116;2024-02-04T00:26:38;102183.03;;;10.70;100.00
51876;BME280;34054;52.100;5.116;2024-02-04T00:27:10;102183.03;;;10.70;100.00
51876;BME280;34054;52.100;5.116;2024-02-04T00:27:42;102182.31;;;10.56;100.00
51876;BME280;34054;52.100;5.116;2024-02-04T00:28:14;102189.50;;;10.68;100.00
51876;BME280;34054;52.100;5.116;2024-02-04T00:28:46;102191.56;;;10.73;100.00
51876;BME280;34054;52.100;5.116;2024-02-04T00:29:17;102182.13;;;10.76;100.00
51876;BME280;34054;52.100;5.116;2024-02-04T00:29:50;102185.22;;;10.79;100.00
51876;BME280;34054;52.100;5.116;2024-02-04T00:30:21;102187.09;;;10.79;100.00
51876;BME280;34054;52.100;5.116;2024-02-04T00:30:53;102186.19;;;10.66;100.00
51876;BME280;34054;52.100;5.116;2024-02-04T00:31:26;102187.59;;;10.69;100.00
51876;BME280;34054;52.100;5.116;2024-02-04T00:31:58;102185.50;;;10.71;100.00
51876;BME280;34054;52.100;5.116;2024-02-04T00:32:29;102178.84;;;10.67;100.00
51876;BME280;34054;52.100;5.116;2024-02-04T00:33:01;102185.50;;;10.71;100.00
51876;BME280;34054;52.100;5.116;2024-02-04T00:33:34;102191.31;;;10.75;100.00
51876;BME280;34054;52.100;5.116;2024-02-04T00:34:06;102176.59;;;10.64;100.00
51876;BME280;34054;52.100;5.116;2024-02-04T00:34:37;102185.56;;;10.64;100.00
51876;BME280;34054;52.100;5.116;2024-02-04T00:35:10;102177.31;;;10.52;100.00
51876;BME280;34054;52.100;5.116;2024-02-04T00:35:41;102184.81;;;10.57;100.00
51876;BME280;34054;52.100;5.116;2024-02-04T00:36:13;102185.66;;;10.58;100.00
51876;BME280;34054;52.100;5.116;2024-02-04T00:36:44;102171.75;;;10.47;100.00
51876;BME280;34054;52.100;5.116;2024-02-04T00:37:18;102193.25;;;10.49;100.00
51876;BME280;34054;52.100;5.116;2024-02-04T00:37:50;102190.47;;;10.56;100.00
51876;BME280;34054;52.100;5.116;2024-02-04T00:38:22;102186.91;;;10.55;100.00
51876;BME280;34054;52.100;5.116;2024-02-04T00:38:53;102186.22;;;10.60;100.00
51876;BME280;34054;52.100;5.116;2024-02-04T00:39:25;102187.59;;;10.69;100.00
51876;BME280;34054;52.100;5.116;2024-02-04T00:39:57;102176.03;;;10.55;100.00
51876;BME280;34054;52.100;5.116;2024-02-04T00:40:29;102185.75;;;10.70;100.00
51876;BME280;34054;52.100;5.116;2024-02-04T00:41:01;102191.19;;;10.70;100.00
51876;BME280;34054;52.100;5.116;2024-02-04T00:41:32;102167.50;;;10.51;100.00
51876;BME280;34054;52.100;5.116;2024-02-04T00:42:04;102182.75;;;10.52;100.00
51876;BME280;34054;52.100;5.116;2024-02-04T00:42:37;102182.81;;;10.46;100.00
51876;BME280;34054;52.100;5.116;2024-02-04T00:43:08;102185.47;;;10.52;100.00
51876;BME280;34054;52.100;5.116;2024-02-04T00:43:40;102184.94;;;10.44;100.00
51876;BME280;34054;52.100;5.116;2024-02-04T00:44:12;102187.56;;;10.50;100.00
51876;BME280;34054;52.100;5.116;2024-02-04T00:44:44;102183.88;;;10.45;100.00
51876;BME280;34054;52.100;5.116;2024-02-04T00:45:16;102192.19;;;10.50;100.00
51876;BME280;34054;52.100;5.116;2024-02-04T00:45:47;102186.59;;;10.45;100.00
51876;BME280;34054;52.100;5.116;2024-02-04T00:46:19;102184.41;;;10.53;100.00
51876;BME280;34054;52.100;5.116;2024-02-04T00:46:51;102180.66;;;10.55;100.00
51876;BME280;34054;52.100;5.116;2024-02-04T00:47:23;102184.03;;;10.50;100.00
51876;BME280;34054;52.100;5.116;2024-02-04T00:47:54;102190.66;;;10.54;100.00
51876;BME280;34054;52.100;5.116;2024-02-04T00:48:26;102184.13;;;10.62;100.00
51876;BME280;34054;52.100;5.116;2024-02-04T00:48:57;102170.41;;;10.57;100.00
51876;BME280;34054;52.100;5.116;2024-02-04T00:49:30;102185.06;;;10.74;100.00
51876;BME280;34054;52.100;5.116;2024-02-04T00:50:01;102181.47;;;10.55;100.00
51876;BME280;34054;52.100;5.116;2024-02-04T00:50:33;102174.75;;;10.39;100.00
51876;BME280;34054;52.100;5.116;2024-02-04T00:51:05;102181.16;;;10.45;100.00
51876;BME280;34054;52.100;5.116;2024-02-04T00:51:38;102176.88;;;10.56;100.00
51876;BME280;34054;52.100;5.116;2024-02-04T00:52:09;102159.97;;;10.53;100.00
51876;BME280;34054;52.100;5.116;2024-02-04T00:52:42;102183.69;;;10.65;100.00
51876;BME280;34054;52.100;5.116;2024-02-04T00:53:15;102125.94;;;10.26;100.00
51876;BME280;34054;52.100;5.116;2024-02-04T00:53:46;102175.53;;;10.65;100.00
51876;BME280;34054;52.100;5.116;2024-02-04T00:54:18;102183.22;;;10.68;100.00
51876;BME280;34054;52.100;5.116;2024-02-04T00:54:50;102170.09;;;10.65;100.00
51876;BME280;34054;52.100;5.116;2024-02-04T00:55:22;102177.78;;;10.68;100.00
51876;BME280;34054;52.100;5.116;2024-02-04T00:55:54;102169.06;;;10.66;100.00
51876;BME280;34054;52.100;5.116;2024-02-04T00:56:25;102174.38;;;10.54;100.00
51876;BME280;34054;52.100;5.116;2024-02-04T00:56:58;102171.50;;;10.49;100.00
51876;BME280;34054;52.100;5.116;2024-02-04T00:57:31;102168.94;;;10.54;100.00
51876;BME280;34054;52.100;5.116;2024-02-04T00:58:02;102168.41;;;10.45;100.00
51876;BME280;34054;52.100;5.116;2024-02-04T00:58:34;102164.78;;;10.51;100.00
51876;BME280;34054;52.100;5.116;2024-02-04T00:59:07;102165.16;;;10.55;100.00
51876;BME280;34054;52.100;5.116;2024-02-04T00:59:39;102160.72;;;10.61;100.00
51876;BME280;34054;52.100;5.116;2024-02-04T01:00:11;102155.78;;;10.58;100.00
51876;BME280;34054;52.100;5.116;2024-02-04T01:00:44;102147.50;;;10.46;100.00
51876;BME280;34054;52.100;5.116;2024-02-04T01:01:16;102164.41;;;10.48;100.00
51876;BME280;34054;52.100;5.116;2024-02-04T01:01:48;102155.75;;;10.32;100.00
51876;BME280;34054;52.100;5.116;2024-02-04T01:02:19;102163.41;;;10.42;100.00
51876;BME280;34054;52.100;5.116;2024-02-04T01:02:52;102162.75;;;10.47;100.00
51876;BME280;34054;52.100;5.116;2024-02-04T01:03:23;102160.88;;;10.47;100.00
51876;BME280;34054;52.100;5.116;2024-02-04T01:03:55;102161.53;;;10.43;100.00
51876;BME280;34054;52.100;5.116;2024-02-04T01:04:27;102156.13;;;10.36;100.00
51876;BME280;34054;52.100;5.116;2024-02-04T01:04:59;102161.56;;;10.36;100.00
51876;BME280;34054;52.100;5.116;2024-02-04T01:05:31;102157.41;;;10.40;100.00
51876;BME280;34054;52.100;5.116;2024-02-04T01:06:03;102161.25;;;10.51;100.00
51876;BME280;34054;52.100;5.116;2024-02-04T01:06:35;102166.03;;;10.56;100.00
51876;BME280;34054;52.100;5.116;2024-02-04T01:07:08;102164.69;;;10.65;100.00
51876;BME280;34054;52.100;5.116;2024-02-04T01:07:41;102156.72;;;10.45;100.00
51876;BME280;34054;52.100;5.116;2024-02-04T01:08:13;102162.75;;;10.47;100.00
51876;BME280;34054;52.100;5.116;2024-02-04T01:08:45;102150.59;;;10.49;100.00
51876;BME280;34054;52.100;5.116;2024-02-04T01:09:17;102158.06;;;10.54;100.00
51876;BME280;34054;52.100;5.116;2024-02-04T01:09:48;102158.63;;;10.63;100.00
51876;BME280;34054;52.100;5.116;2024-02-04T01:10:20;102148.06;;;10.55;100.00
51876;BME280;34054;52.100;5.116;2024-02-04T01:10:53;102155.59;;;10.52;100.00
51876;BME280;34054;52.100;5.116;2024-02-04T01:11:24;102155.88;;;10.44;100.00
51876;BME280;34054;52.100;5.116;2024-02-04T01:11:56;102163.59;;;10.47;100.00
51876;BME280;34054;52.100;5.116;2024-02-04T01:12:27;102151.69;;;10.48;100.00
51876;BME280;34054;52.100;5.116;2024-02-04T01:13:00;102158.97;;;10.48;100.00
51876;BME280;34054;52.100;5.116;2024-02-04T01:13:32;102153.50;;;10.55;100.00
51876;BME280;34054;52.100;5.116;2024-02-04T01:14:03;102155.28;;;10.61;100.00
51876;BME280;34054;52.100;5.116;2024-02-04T01:14:35;102149.63;;;10.62;100.00
51876;BME280;34054;52.100;5.116;2024-02-04T01:15:08;102147.09;;;10.67;100.00
51876;BME280;34054;52.100;5.116;2024-02-04T01:15:40;102143.75;;;10.65;100.00
51876;BME280;34054;52.100;5.116;2024-02-04T01:16:12;102139.59;;;10.63;100.00
51876;BME280;34054;52.100;5.116;2024-02-04T01:16:44;102139.94;;;10.73;100.00
51876;BME280;34054;52.100;5.116;2024-02-04T01:17:16;102144.97;;;10.70;100.00
51876;BME280;34054;52.100;5.116;2024-02-04T01:17:47;102142.41;;;10.75;100.00
51876;BME280;34054;52.100;5.116;2024-02-04T01:18:19;102125.59;;;10.66;100.00
51876;BME280;34054;52.100;5.116;2024-02-04T01:18:51;102133.88;;;10.71;100.00
51876;BME280;34054;52.100;5.116;2024-02-04T01:19:23;102142.41;;;10.75;100.00
51876;BME280;34054;52.100;5.116;2024-02-04T01:19:54;102144.13;;;10.69;100.00
51876;BME280;34054;52.100;5.116;2024-02-04T01:20:26;102138.69;;;10.69;100.00
51876;BME280;34054;52.100;5.116;2024-02-04T01:20:59;102140.81;;;10.67;100.00
51876;BME280;34054;52.100;5.116;2024-02-04T01:21:31;102134.63;;;10.60;100.00
51876;BME280;34054;52.100;5.116;2024-02-04T01:22:03;102148.38;;;10.65;100.00
51876;BME280;34054;52.100;5.116;2024-02-04T01:22:36;102138.84;;;10.56;100.00
51876;BME280;34054;52.100;5.116;2024-02-04T01:23:10;102134.72;;;10.53;100.00
51876;BME280;34054;52.100;5.116;2024-02-04T01:23:42;102145.72;;;10.58;100.00
51876;BME280;34054;52.100;5.116;2024-02-04T01:24:13;102135.16;;;10.68;100.00
51876;BME280;34054;52.100;5.116;2024-02-04T01:24:45;102147.59;;;10.76;100.00
51876;BME280;34054;52.100;5.116;2024-02-04T01:25:19;102138.63;;;10.76;100.00
51876;BME280;34054;52.100;5.116;2024-02-04T01:25:51;102141.28;;;10.64;100.00
51876;BME280;34054;52.100;5.116;2024-02-04T01:26:22;102144.00;;;10.64;100.00
51876;BME280;34054;52.100;5.116;2024-02-04T01:26:55;102139.91;;;10.55;100.00
51876;BME280;34054;52.100;5.116;2024-02-04T01:27:27;102154.78;;;10.52;100.00
51876;BME280;34054;52.100;5.116;2024-02-04T01:27:59;102146.97;;;10.37;100.00
51876;BME280;34054;52.100;5.116;2024-02-04T01:28:30;102155.72;;;10.39;100.00
51876;BME280;34054;52.100;5.116;2024-02-04T01:29:02;102150.84;;;10.48;100.00
51876;BME280;34054;52.100;5.116;2024-02-04T01:29:34;102152.78;;;10.41;100.00
51876;BME280;34054;52.100;5.116;2024-02-04T01:30:07;102142.34;;;10.37;100.00
51876;BME280;34054;52.100;5.116;2024-02-04T01:30:38;102148.34;;;10.46;100.00
51876;BME280;34054;52.100;5.116;2024-02-04T01:31:11;102149.25;;;10.40;100.00
51876;BME280;34054;52.100;5.116;2024-02-04T01:31:42;102154.94;;;10.32;100.00
51876;BME280;34054;52.100;5.116;2024-02-04T01:32:14;102150.50;;;10.37;100.00
51876;BME280;34054;52.100;5.116;2024-02-04T01:32:46;102150.00;;;10.47;100.00
51876;BME280;34054;52.100;5.116;2024-02-04T01:33:18;102151.88;;;10.47;100.00
51876;BME280;34054;52.100;5.116;2024-02-04T01:33:50;102158.38;;;10.46;100.00
51876;BME280;34054;52.100;5.116;2024-02-04T01:34:21;102154.06;;;10.38;100.00
51876;BME280;34054;52.100;5.116;2024-02-04T01:34:53;102150.72;;;10.36;100.00
51876;BME280;34054;52.100;5.116;2024-02-04T01:35:25;102150.00;;;10.47;100.00
51876;BME280;34054;52.100;5.116;2024-02-04T01:35:57;102147.63;;;10.58;100.00
51876;BME280;34054;52.100;5.116;2024-02-04T01:36:29;102147.31;;;10.66;100.00
51876;BME280;34054;52.100;5.116;2024-02-04T01:37:01;102150.53;;;10.56;100.00
51876;BME280;34054;52.100;5.116;2024-02-04T01:37:32;102148.28;;;10.53;100.00
51876;BME280;34054;52.100;5.116;2024-02-04T01:38:05;102147.81;;;10.56;100.00
51876;BME280;34054;52.100;5.116;2024-02-04T01:38:38;102148.06;;;10.55;100.00
51876;BME280;34054;52.100;5.116;2024-02-04T01:39:09;102145.94;;;10.57;100.00
51876;BME280;34054;52.100;5.116;2024-02-04T01:39:41;102152.88;;;10.52;100.00
51876;BME280;34054;52.100;5.116;2024-02-04T01:40:14;102150.00;;;10.47;100.00
51876;BME280;34054;52.100;5.116;2024-02-04T01:40:46;102143.97;;;10.45;100.00
51876;BME280;34054;52.100;5.116;2024-02-04T01:41:17;102147.97;;;10.43;100.00
51876;BME280;34054;52.100;5.116;2024-02-04T01:41:49;102147.13;;;10.42;100.00
51876;BME280;34054;52.100;5.116;2024-02-04T01:42:21;102154.25;;;10.36;100.00
51876;BME280;34054;52.100;5.116;2024-02-04T01:42:53;102133.66;;;10.29;100.00
51876;BME280;34054;52.100;5.116;2024-02-04T01:43:24;102137.84;;;10.25;100.00
51876;BME280;34054;52.100;5.116;2024-02-04T01:43:57;102159.50;;;10.38;100.00
51876;BME280;34054;52.100;5.116;2024-02-04T01:44:28;102146.31;;;10.42;100.00
51876;BME280;34054;52.100;5.116;2024-02-04T01:45:00;102149.41;;;10.45;100.00
51876;BME280;34054;52.100;5.116;2024-02-04T01:45:31;102158.75;;;10.49;100.00
51876;BME280;34054;52.100;5.116;2024-02-04T01:46:04;102146.00;;;10.50;100.00
51876;BME280;34054;52.100;5.116;2024-02-04T01:46:36;102148.88;;;10.55;100.00
51876;BME280;34054;52.100;5.116;2024-02-04T01:47:08;102152.34;;;10.62;100.00
51876;BME280;34054;52.100;5.116;2024-02-04T01:47:40;102134.81;;;10.40;100.00
51876;BME280;34054;52.100;5.116;2024-02-04T01:48:13;102152.06;;;10.52;100.00
51876;BME280;34054;52.100;5.116;2024-02-04T01:48:46;102157.41;;;10.59;100.00
51876;BME280;34054;52.100;5.116;2024-02-04T01:49:18;102149.63;;;10.62;100.00
51876;BME280;34054;52.100;5.116;2024-02-04T01:49:51;102146.53;;;10.40;100.00
51876;BME280;34054;52.100;5.116;2024-02-04T01:50:23;102146.91;;;10.44;100.00
51876;BME280;34054;52.100;5.116;2024-02-04T01:50:57;102151.81;;;10.53;100.00
51876;BME280;34054;52.100;5.116;2024-02-04T01:51:31;102152.44;;;10.56;100.00
51876;BME280;34054;52.100;5.116;2024-02-04T01:52:04;102149.63;;;10.62;100.00
51876;BME280;34054;52.100;5.116;2024-02-04T01:52:37;102154.38;;;10.67;100.00
51876;BME280;34054;52.100;5.116;2024-02-04T01:53:13;102164.44;;;10.66;100.00
51876;BME280;34054;52.100;5.116;2024-02-04T01:53:47;102159.31;;;10.58;100.00
51876;BME280;34054;52.100;5.116;2024-02-04T01:54:21;102164.69;;;10.65;100.00
51876;BME280;34054;52.100;5.116;2024-02-04T01:54:56;102156.88;;;10.50;100.00
51876;BME280;34054;52.100;5.116;2024-02-04T01:55:30;102162.69;;;10.53;100.00
51876;BME280;34054;52.100;5.116;2024-02-04T01:56:02;102161.78;;;10.60;100.00
51876;BME280;34054;52.100;5.116;2024-02-04T01:56:35;102165.56;;;10.59;100.00
51876;BME280;34054;52.100;5.116;2024-02-04T01:57:09;102164.69;;;10.65;100.00
51876;BME280;34054;52.100;5.116;2024-02-04T01:57:42;102163.00;;;10.64;100.00
51876;BME280;34054;52.100;5.116;2024-02-04T01:58:14;102167.16;;;10.66;100.00
51876;BME280;34054;52.100;5.116;2024-02-04T01:58:46;102167.53;;;10.70;100.00
51876;BME280;34054;52.100;5.116;2024-02-04T01:59:20;102164.53;;;10.78;100.00
51876;BME280;34054;52.100;5.116;2024-02-04T01:59:59;102169.97;;;10.78;100.00
51876;BME280;34054;52.100;5.116;2024-02-04T02:00:31;102169.34;;;10.76;100.00
51876;BME280;34054;52.100;5.116;2024-02-04T02:01:03;102180.22;;;10.76;100.00
51876;BME280;34054;52.100;5.116;2024-02-04T02:01:36;102169.81;;;10.73;100.00
51876;BME280;34054;52.100;5.116;2024-02-04T02:02:09;102174.19;;;10.74;100.00
51876;BME280;34054;52.100;5.116;2024-02-04T02:02:41;102170.50;;;10.68;100.00
51876;BME280;34054;52.100;5.116;2024-02-04T02:03:14;102172.59;;;10.66;100.00
51876;BME280;34054;52.100;5.116;2024-02-04T02:03:48;102171.22;;;10.57;100.00
51876;BME280;34054;52.100;5.116;2024-02-04T02:04:21;102167.69;;;10.57;100.00
51876;BME280;34054;52.100;5.116;2024-02-04T02:04:53;102173.13;;;10.57;100.00
51876;BME280;34054;52.100;5.116;2024-02-04T02:05:25;102167.44;;;10.58;100.00
51876;BME280;34054;52.100;5.116;2024-02-04T02:05:58;102166.16;;;10.61;100.00
51876;BME280;34054;52.100;5.116;2024-02-04T02:06:30;102170.25;;;10.70;100.00
51876;BME280;34054;52.100;5.116;2024-02-04T02:07:04;102164.81;;;10.70;100.00
51876;BME280;34054;52.100;5.116;2024-02-04T02:07:40;102156.06;;;10.68;100.00
51876;BME280;34054;52.100;5.116;2024-02-04T02:08:12;102159.25;;;10.65;100.00
51876;BME280;34054;52.100;5.116;2024-02-04T02:08:44;102160.34;;;10.57;100.00
51876;BME280;34054;52.100;5.116;2024-02-04T02:09:17;102160.13;;;10.59;100.00
51876;BME280;34054;52.100;5.116;2024-02-04T02:09:50;102161.38;;;10.37;100.00
51876;BME280;34054;52.100;5.116;2024-02-04T02:10:21;102166.78;;;10.37;100.00
51876;BME280;34054;52.100;5.116;2024-02-04T02:10:58;102163.09;;;10.32;100.00
51876;BME280;34054;52.100;5.116;2024-02-04T02:11:40;102164.78;;;10.26;100.00
51876;BME280;34054;52.100;5.116;2024-02-04T02:12:18;102158.84;;;10.36;100.00
51876;BME280;34054;52.100;5.116;2024-02-04T02:12:58;102163.03;;;10.39;100.00
51876;BME280;34054;52.100;5.116;2024-02-04T02:13:37;102160.25;;;10.45;100.00
51876;BME280;34054;52.100;5.116;2024-02-04T02:14:15;102163.59;;;10.47;100.00
51876;BME280;34054;52.100;5.116;2024-02-04T02:14:56;102160.22;;;10.52;100.00
51876;BME280;34054;52.100;5.116;2024-02-04T02:15:36;102161.03;;;10.52;100.00
51876;BME280;34054;52.100;5.116;2024-02-04T02:16:17;102159.69;;;10.62;100.00
51876;BME280;34054;52.100;5.116;2024-02-04T02:16:54;102162.16;;;10.63;100.00
51876;BME280;34054;52.100;5.116;2024-02-04T02:17:35;102152.16;;;10.64;100.00
51876;BME280;34054;52.100;5.116;2024-02-04T02:18:23;102150.16;;;10.52;100.00
51876;BME280;34054;52.100;5.116;2024-02-04T02:19:03;102149.06;;;10.60;100.00
51876;BME280;34054;52.100;5.116;2024-02-04T02:19:54;102155.63;;;10.71;100.00
51876;BME280;34054;52.100;5.116;2024-02-04T02:20:39;102160.06;;;10.65;100.00
51876;BME280;34054;52.100;5.116;2024-02-04T02:21:34;102141.63;;;10.49;100.00
51876;BME280;34054;52.100;5.116;2024-02-04T02:22:25;102155.00;;;10.69;100.00
51876;BME280;34054;52.100;5.116;2024-02-04T02:23:06;102140.59;;;10.68;100.00
51876;BME280;34054;52.100;5.116;2024-02-04T02:23:44;102140.50;;;10.75;100.00
51876;BME280;34054;52.100;5.116;2024-02-04T02:24:34;102154.03;;;10.82;100.00
51876;BME280;34054;52.100;5.116;2024-02-04T02:25:07;102149.88;;;10.79;100.00
51876;BME280;34054;52.100;5.116;2024-02-04T02:25:40;102151.91;;;10.84;100.00
51876;BME280;34054;52.100;5.116;2024-02-04T02:26:12;102146.88;;;10.88;100.00
51876;BME280;34054;52.100;5.116;2024-02-04T02:26:44;102147.84;;;10.75;100.00
51876;BME280;34054;52.100;5.116;2024-02-04T02:27:17;102142.53;;;10.80;100.00
51876;BME280;34054;52.100;5.116;2024-02-04T02:27:49;102135.47;;;10.79;100.00
51876;BME280;34054;52.100;5.116;2024-02-04T02:28:21;102150.09;;;10.96;100.00
51876;BME280;34054;52.100;5.116;2024-02-04T02:28:52;102152.75;;;11.03;100.00
51876;BME280;34054;52.100;5.116;2024-02-04T02:29:25;102136.81;;;10.88;100.00
51876;BME280;34054;52.100;5.116;2024-02-04T02:29:56;102149.34;;;10.89;100.00
51876;BME280;34054;52.100;5.116;2024-02-04T02:30:28;102156.81;;;10.94;100.00
51876;BME280;34054;52.100;5.116;2024-02-04T02:31:00;102138.25;;;10.72;100.00
51876;BME280;34054;52.100;5.116;2024-02-04T02:31:32;102143.03;;;10.77;100.00
51876;BME280;34054;52.100;5.116;2024-02-04T02:32:04;102151.06;;;10.83;100.00
51876;BME280;34054;52.100;5.116;2024-02-04T02:32:36;102148.97;;;10.86;100.00
51876;BME280;34054;52.100;5.116;2024-02-04T02:33:08;102155.38;;;10.91;100.00
51876;BME280;34054;52.100;5.116;2024-02-04T02:33:40;102157.41;;;10.59;100.00
51876;BME280;34054;52.100;5.116;2024-02-04T02:34:12;102155.06;;;10.62;100.00
51876;BME280;34054;52.100;5.116;2024-02-04T02:34:44;102157.88;;;10.56;100.00
51876;BME280;34054;52.100;5.116;2024-02-04T02:35:17;102153.31;;;10.49;100.00
51876;BME280;34054;52.100;5.116;2024-02-04T02:35:53;102145.31;;;10.29;100.00
51876;BME280;34054;52.100;5.116;2024-02-04T02:36:30;102158.22;;;10.41;100.00
51876;BME280;34054;52.100;5.116;2024-02-04T02:37:15;102146.31;;;10.42;100.00
51876;BME280;34054;52.100;5.116;2024-02-04T02:37:57;102147.28;;;10.47;100.00
51876;BME280;34054;52.100;5.116;2024-02-04T02:38:42;102140.28;;;10.33;100.00
51876;BME280;34054;52.100;5.116;2024-02-04T02:39:22;102150.94;;;10.34;100.00
51876;BME280;34054;52.100;5.116;2024-02-04T02:40:01;102142.50;;;10.17;100.00
51876;BME280;34054;52.100;5.116;2024-02-04T02:40:40;102138.13;;;10.16;100.00
51876;BME280;34054;52.100;5.116;2024-02-04T02:41:18;102142.84;;;10.28;100.00
51876;BME280;34054;52.100;5.116;2024-02-04T02:41:55;102142.34;;;10.37;100.00
51876;BME280;34054;52.100;5.116;2024-02-04T02:42:31;102147.38;;;10.34;100.00
51876;BME280;34054;52.100;5.116;2024-02-04T02:43:04;102139.63;;;10.37;100.00
51876;BME280;34054;52.100;5.116;2024-02-04T02:43:39;102146.53;;;10.40;100.00
51876;BME280;34054;52.100;5.116;2024-02-04T02:44:13;102154.69;;;10.40;100.00
51876;BME280;34054;52.100;5.116;2024-02-04T02:44:47;102152.34;;;10.44;100.00
51876;BME280;34054;52.100;5.116;2024-02-04T02:45:20;102138.41;;;10.33;100.00
51876;BME280;34054;52.100;5.116;2024-02-04T02:45:53;102146.00;;;10.50;100.00
51876;BME280;34054;52.100;5.116;2024-02-04T02:46:26;102147.59;;;10.39;100.00
51876;BME280;34054;52.100;5.116;2024-02-04T02:47:00;102149.09;;;10.28;100.00
51876;BME280;34054;52.100;5.116;2024-02-04T02:47:37;102148.00;;;10.36;100.00
51876;BME280;34054;52.100;5.116;2024-02-04T02:48:11;102144.06;;;10.32;100.00
51876;BME280;34054;52.100;5.116;2024-02-04T02:48:44;102143.22;;;10.31;100.00
51876;BME280;34054;52.100;5.116;2024-02-04T02:49:16;102146.53;;;10.40;100.00
51876;BME280;34054;52.100;5.116;2024-02-04T02:49:48;102144.03;;;10.39;100.00
51876;BME280;34054;52.100;5.116;2024-02-04T02:50:23;102146.44;;;10.47;100.00
51876;BME280;34054;52.100;5.116;2024-02-04T02:50:56;102156.13;;;10.43;100.00
51876;BME280;34054;52.100;5.116;2024-02-04T02:51:29;102147.47;;;10.27;100.00